createdAt,value
2019-02-12T00:12:07.256Z,1021.58
2019-02-12T00:15:46.835Z,1021.58
2019-02-12T00:16:45.391Z,1021.59
2019-02-12T00:17:43.966Z,1021.58
2019-02-12T00:18:38.471Z,1021.63
2019-02-12T00:19:36.604Z,1021.64
2019-02-12T00:28:36.853Z,1021.85
2019-02-12T00:29:32.769Z,1021.91
2019-02-12T00:30:22.202Z,1021.93
2019-02-12T00:35:26.290Z,1022.11
2019-02-12T00:36:19.317Z,1022.15
2019-02-12T00:43:20.509Z,1022.14
2019-02-12T00:55:02.188Z,1022.07
2019-02-12T00:59:55.785Z,1022.06
2019-02-12T01:06:26.604Z,1022.11
2019-02-12T01:07:20.816Z,1022.11
2019-02-12T01:08:28.330Z,1022.1
2019-02-12T01:09:24.477Z,1022.14
2019-02-12T01:10:35.023Z,1022.16
2019-02-12T01:11:29.787Z,1022.2
2019-02-12T01:12:32.635Z,1022.19
2019-02-12T01:13:32.643Z,1022.21
2019-02-12T01:14:42.398Z,1022.23
2019-02-12T01:18:52.894Z,1022.23
2019-02-12T01:23:14.243Z,1022.27
2019-02-12T01:27:05.590Z,1022.21
2019-02-12T01:27:56.570Z,1022.23
2019-02-12T01:28:48.770Z,1022.23
2019-02-12T01:29:38.580Z,1022.27
2019-02-12T01:31:47.363Z,1022.26
2019-02-12T01:32:40.420Z,1022.25
2019-02-12T01:41:10.794Z,1022.3
2019-02-12T01:44:21.174Z,1022.32
2019-02-12T01:45:11.576Z,1022.33
2019-02-12T01:46:05.548Z,1022.34
2019-02-12T01:46:57.354Z,1022.3
2019-02-12T01:47:50.432Z,1022.34
2019-02-12T01:48:41.832Z,1022.31
2019-02-12T01:49:33.157Z,1022.33
2019-02-12T01:50:23.567Z,1022.36
2019-02-12T01:51:13.084Z,1022.3
2019-02-12T01:52:12.404Z,1022.31
2019-02-12T01:53:06.529Z,1022.36
2019-02-12T01:53:57.164Z,1022.38
2019-02-12T01:54:47.873Z,1022.37
2019-02-12T01:55:39.685Z,1022.3
2019-02-12T02:05:15.506Z,1022.16
2019-02-12T02:07:39.668Z,1022.15
2019-02-12T02:08:32.317Z,1022.17
2019-02-12T02:12:41.423Z,1022.17
2019-02-12T02:13:31.574Z,1022.13
2019-02-12T02:14:21.031Z,1022.17
2019-02-12T02:16:49.222Z,1022.21
2019-02-12T02:17:42.981Z,1022.17
2019-02-12T02:18:36.092Z,1022.17
2019-02-12T02:23:11.209Z,1022.16
2019-02-12T02:23:48.765Z,1022.13
2019-02-12T02:25:56.920Z,1022.15
2019-02-12T02:26:46.683Z,1022.17
2019-02-12T02:27:35.333Z,1022.16
2019-02-12T02:28:25.570Z,1022.23
2019-02-12T02:29:18.424Z,1022.18
2019-02-12T02:30:13.061Z,1022.2
2019-02-12T02:33:43.515Z,1022.18
2019-02-12T02:34:39.725Z,1022.18
2019-02-12T02:35:29.863Z,1022.18
2019-02-12T02:36:23.059Z,1022.18
2019-02-12T02:37:16.620Z,1022.18
2019-02-12T02:38:07.572Z,1022.16
2019-02-12T02:38:56.895Z,1022.19
2019-02-12T02:39:53.451Z,1022.22
2019-02-12T02:40:48.523Z,1022.2
2019-02-12T02:51:11.155Z,1022.16
2019-02-12T02:57:46.840Z,1022.13
2019-02-12T03:04:40.310Z,1022.17
2019-02-12T03:17:27.285Z,1022.36
2019-02-12T03:31:25.130Z,1022.67
2019-02-12T03:32:16.831Z,1022.63
2019-02-12T03:33:09.877Z,1022.69
2019-02-12T03:34:00.247Z,1022.62
2019-02-12T03:34:50.587Z,1022.67
2019-02-12T03:35:46.106Z,1022.67
2019-02-12T03:38:27.508Z,1022.63
2019-02-12T03:39:24.338Z,1022.64
2019-02-12T03:40:19.860Z,1022.67
2019-02-12T03:41:19.014Z,1022.68
2019-02-12T03:42:14.521Z,1022.66
2019-02-12T03:47:39.338Z,1022.64
2019-02-12T03:48:33.826Z,1022.63
2019-02-12T03:56:42.183Z,1022.56
2019-02-12T03:57:39.664Z,1022.59
2019-02-12T04:00:09.829Z,1022.59
2019-02-12T04:01:05.848Z,1022.63
2019-02-12T04:01:58.881Z,1022.62
2019-02-12T04:19:52.000Z,1022.64
2019-02-12T04:20:48.043Z,1022.65
2019-02-12T04:22:01.281Z,1022.63
2019-02-12T04:22:56.238Z,1022.69
2019-02-12T04:24:04.824Z,1022.66
2019-02-12T04:25:00.045Z,1022.74
2019-02-12T04:25:54.566Z,1022.72
2019-02-12T04:26:52.526Z,1022.71
2019-02-12T05:06:46.468Z,1022.71
2019-02-12T05:07:39.669Z,1022.71
2019-02-12T05:08:32.145Z,1022.69
2019-02-12T05:09:25.546Z,1022.72
2019-02-12T05:10:18.502Z,1022.74
2019-02-12T05:11:11.021Z,1022.71
2019-02-12T05:12:04.036Z,1022.73
2019-02-12T05:12:56.825Z,1022.76
2019-02-12T05:13:50.420Z,1022.77
2019-02-12T05:14:43.900Z,1022.82
2019-02-12T05:15:37.418Z,1022.79
2019-02-12T05:16:31.064Z,1022.82
2019-02-12T05:17:36.231Z,1022.88
2019-02-12T05:18:34.144Z,1022.89
2019-02-12T05:19:32.917Z,1022.89
2019-02-12T05:20:32.553Z,1022.9
2019-02-12T05:21:34.492Z,1022.92
2019-02-12T05:22:41.814Z,1022.94
2019-02-12T05:23:30.959Z,1022.94
2019-02-12T05:24:29.491Z,1022.9
2019-02-12T05:25:35.684Z,1022.93
2019-02-12T05:26:34.325Z,1022.97
2019-02-12T05:27:32.816Z,1022.93
2019-02-12T05:28:28.083Z,1022.9
2019-02-12T05:29:23.835Z,1022.9
2019-02-12T05:30:19.007Z,1022.94
2019-02-12T05:31:17.123Z,1022.9
2019-02-12T05:32:11.022Z,1022.92
2019-02-12T05:33:09.716Z,1022.94
2019-02-12T05:34:05.661Z,1022.95
2019-02-12T05:34:59.934Z,1022.95
2019-02-12T05:35:57.307Z,1022.94
2019-02-12T05:36:52.983Z,1022.91
2019-02-12T05:37:47.037Z,1022.92
2019-02-12T05:38:46.590Z,1022.91
2019-02-12T05:39:40.541Z,1022.92
2019-02-12T05:40:37.442Z,1022.94
2019-02-12T05:41:32.102Z,1022.93
2019-02-12T05:52:37.455Z,1022.92
2019-02-12T05:53:38.846Z,1022.93
2019-02-12T05:55:03.619Z,1022.95
2019-02-12T06:03:44.231Z,1022.94
2019-02-12T06:06:55.888Z,1022.95
2019-02-12T06:12:54.469Z,1022.91
2019-02-12T06:13:53.268Z,1022.89
2019-02-12T06:14:59.548Z,1022.91
2019-02-12T06:16:12.178Z,1022.9
2019-02-12T06:17:10.524Z,1022.89
2019-02-12T06:27:45.952Z,1022.89
2019-02-12T06:28:41.833Z,1022.88
2019-02-12T06:29:36.887Z,1022.89
2019-02-12T06:30:31.877Z,1022.86
2019-02-12T06:33:18.232Z,1022.88
2019-02-12T06:34:15.356Z,1022.91
2019-02-12T06:35:23.421Z,1022.89
2019-02-12T06:51:48.227Z,1023.03
2019-02-12T06:52:42.689Z,1023.03
2019-02-12T06:53:37.628Z,1023.04
2019-02-12T06:56:13.567Z,1023.12
2019-02-12T06:57:16.510Z,1023.09
2019-02-12T07:00:08.949Z,1023.15
2019-02-12T07:01:02.545Z,1023.16
2019-02-12T07:01:55.017Z,1023.16
2019-02-12T07:02:50.696Z,1023.15
2019-02-12T07:03:45.053Z,1023.15
2019-02-12T07:04:39.059Z,1023.15
2019-02-12T07:06:54.885Z,1023.16
2019-02-12T07:07:51.003Z,1023.15
2019-02-12T07:08:52.725Z,1023.16
2019-02-12T07:11:33.895Z,1023.17
2019-02-12T07:13:45.466Z,1023.2
2019-02-12T07:14:28.563Z,1023.22
2019-02-12T07:15:09.766Z,1023.22
2019-02-12T07:15:50.154Z,1023.29
2019-02-12T07:16:30.548Z,1023.27
2019-02-12T07:17:10.934Z,1023.31
2019-02-12T07:17:51.406Z,1023.31
2019-02-12T07:18:36.008Z,1023.29
2019-02-12T07:19:16.302Z,1023.3
2019-02-12T07:19:56.928Z,1023.35
2019-02-12T07:20:39.261Z,1023.33
2019-02-12T07:21:19.728Z,1023.38
2019-02-12T07:22:00.714Z,1023.35
2019-02-12T07:22:40.851Z,1023.41
2019-02-12T07:23:21.702Z,1023.4
2019-02-12T07:24:05.591Z,1023.43
2019-02-12T07:24:46.198Z,1023.41
2019-02-12T07:25:26.676Z,1023.46
2019-02-12T07:26:07.974Z,1023.5
2019-02-12T07:26:47.917Z,1023.47
2019-02-12T07:27:30.382Z,1023.49
2019-02-12T07:28:11.380Z,1023.5
2019-02-12T07:28:52.402Z,1023.54
2019-02-12T07:29:35.980Z,1023.55
2019-02-12T07:30:16.094Z,1023.59
2019-02-12T07:31:01.997Z,1023.56
2019-02-12T07:36:49.293Z,1023.73
2019-02-12T07:37:49.710Z,1023.75
2019-02-12T07:56:42.788Z,1023.87
2019-02-12T07:57:43.755Z,1023.56
2019-02-12T07:58:38.749Z,1023.9
2019-02-12T07:59:37.653Z,1023.91
2019-02-12T08:03:18.802Z,1023.98
2019-02-12T08:06:25.754Z,1024.04
2019-02-12T08:07:20.484Z,1024.1
2019-02-12T08:08:27.313Z,1024.12
2019-02-12T08:16:56.220Z,1024.32
2019-02-12T08:31:05.804Z,1024.37
2019-02-12T08:39:01.754Z,1024.32
2019-02-12T08:41:22.874Z,1024.4
2019-02-12T08:42:19.520Z,1024.44
2019-02-12T08:47:39.865Z,1024.52
2019-02-12T08:49:34.907Z,1024.5
2019-02-12T08:50:18.344Z,1024.51
2019-02-12T08:50:58.016Z,1024.54
2019-02-12T08:51:39.670Z,1024.56
2019-02-12T08:52:21.420Z,1024.55
2019-02-12T08:53:02.559Z,1024.54
2019-02-12T08:53:50.412Z,1024.5
2019-02-12T08:58:24.644Z,1024.64
2019-02-12T09:12:42.482Z,1024.64
2019-02-12T09:18:08.655Z,1024.68
2019-02-12T09:18:51.213Z,1024.69
2019-02-12T09:19:39.619Z,1024.7
2019-02-12T10:04:23.621Z,1025.06
2019-02-12T10:05:05.552Z,1025.07
2019-02-12T10:05:48.047Z,1025.07
2019-02-12T10:07:03.761Z,1025.07
2019-02-12T10:07:55.255Z,1025.06
2019-02-12T10:08:38.260Z,1025.06
2019-02-12T10:15:28.816Z,1025.09
2019-02-12T11:22:33.682Z,1024.98
2019-02-12T11:23:26.116Z,1025
2019-02-12T11:24:12.101Z,1025.03
2019-02-12T11:24:57.542Z,1025.02
2019-02-12T11:25:43.470Z,1024.96
2019-02-12T11:26:25.024Z,1024.99
2019-02-12T11:27:13.197Z,1024.98
2019-02-12T11:28:01.934Z,1024.99
2019-02-12T11:29:01.470Z,1024.99
2019-02-12T11:36:57.947Z,1024.94
2019-02-12T11:37:41.276Z,1024.91
2019-02-12T11:38:47.136Z,1024.91
2019-02-12T11:39:30.130Z,1024.92
2019-02-12T11:40:09.932Z,1024.94
2019-02-12T11:40:51.129Z,1024.91
2019-02-12T11:41:39.439Z,1024.85
2019-02-12T11:42:22.085Z,1024.89
2019-02-12T11:43:12.371Z,1024.85
2019-02-12T11:43:56.889Z,1024.87
2019-02-12T11:44:40.103Z,1024.86
2019-02-12T11:45:23.368Z,1024.9
2019-02-12T11:46:06.886Z,1024.89
2019-02-12T11:46:50.758Z,1024.87
2019-02-12T11:47:37.338Z,1024.89
2019-02-12T11:48:22.182Z,1024.89
2019-02-12T11:49:04.791Z,1024.85
2019-02-12T11:49:49.438Z,1024.86
2019-02-12T11:50:29.964Z,1024.85
2019-02-12T11:51:13.598Z,1024.87
2019-02-12T11:51:56.200Z,1024.88
2019-02-12T11:52:41.292Z,1024.87
2019-02-12T11:53:27.958Z,1024.85
2019-02-12T11:54:11.539Z,1024.8
2019-02-12T11:54:54.958Z,1024.81
2019-02-12T11:57:49.403Z,1024.86
2019-02-12T11:58:49.990Z,1024.88
2019-02-12T11:59:46.594Z,1024.87
2019-02-12T12:04:03.937Z,1024.93
2019-02-12T12:05:07.600Z,1024.83
2019-02-12T12:06:17.310Z,1024.95
2019-02-12T12:07:11.182Z,1024.94
2019-02-12T12:08:03.950Z,1024.91
2019-02-12T12:08:57.863Z,1024.87
2019-02-12T12:10:00.306Z,1024.92
2019-02-12T12:10:58.622Z,1024.85
2019-02-12T12:11:52.031Z,1024.88
2019-02-12T12:12:49.840Z,1024.88
2019-02-12T12:13:45.225Z,1024.83
2019-02-12T12:14:39.979Z,1024.84
2019-02-12T12:15:33.576Z,1024.86
2019-02-12T12:16:29.758Z,1024.85
2019-02-12T12:17:22.597Z,1024.88
2019-02-12T12:18:23.218Z,1024.86
2019-02-12T12:19:03.558Z,1024.85
2019-02-12T12:19:53.113Z,1024.92
2019-02-12T12:20:34.593Z,1024.89
2019-02-12T12:21:37.042Z,1024.85
2019-02-12T12:22:18.602Z,1024.86
2019-02-12T12:22:59.760Z,1024.84
2019-02-12T12:31:53.232Z,1024.84
2019-02-12T12:32:58.741Z,1024.85
2019-02-12T12:35:35.204Z,1024.84
2019-02-12T12:36:37.710Z,1024.86
2019-02-12T12:37:32.850Z,1024.87
2019-02-12T12:38:28.576Z,1024.9
2019-02-12T12:39:23.465Z,1024.86
2019-02-12T12:40:18.077Z,1024.91
2019-02-12T12:41:12.942Z,1024.87
2019-02-12T12:42:12.395Z,1024.88
2019-02-12T12:43:06.156Z,1024.87
2019-02-12T12:44:00.827Z,1024.87
2019-02-12T12:44:54.756Z,1024.79
2019-02-12T12:45:52.885Z,1024.83
2019-02-12T12:46:48.836Z,1024.81
2019-02-12T12:47:42.144Z,1024.88
2019-02-12T12:48:42.972Z,1024.81
2019-02-12T12:49:40.621Z,1024.84
2019-02-12T12:50:50.022Z,1024.84
2019-02-12T12:51:46.615Z,1024.85
2019-02-12T12:52:40.448Z,1024.83
2019-02-12T12:53:34.667Z,1024.82
2019-02-12T12:54:30.084Z,1024.8
2019-02-12T12:55:30.115Z,1024.84
2019-02-12T12:56:24.418Z,1024.79
2019-02-12T12:59:02.641Z,1024.84
2019-02-12T13:00:07.880Z,1024.81
2019-02-12T13:01:50.241Z,1024.85
2019-02-12T13:02:59.637Z,1024.86
2019-02-12T13:04:22.829Z,1024.78
2019-02-12T13:13:45.620Z,1024.78
2019-02-12T13:14:39.862Z,1024.74
2019-02-12T13:15:49.069Z,1024.79
2019-02-12T13:16:45.666Z,1024.76
2019-02-12T13:17:40.666Z,1024.77
2019-02-12T13:18:39.890Z,1024.74
2019-02-12T13:22:45.918Z,1024.79
2019-02-12T13:23:44.941Z,1024.77
2019-02-12T13:24:47.063Z,1024.76
2019-02-12T13:25:50.415Z,1024.67
2019-02-12T13:27:46.949Z,1024.71
2019-02-12T13:28:45.555Z,1024.67
2019-02-12T13:29:48.660Z,1024.66
2019-02-12T13:30:59.766Z,1024.71
2019-02-12T13:31:56.555Z,1024.72
2019-02-12T13:32:53.429Z,1024.7
2019-02-12T13:33:47.702Z,1024.77
2019-02-12T13:34:39.509Z,1024.77
2019-02-12T13:35:35.631Z,1024.73
2019-02-12T13:36:31.982Z,1024.78
2019-02-12T13:37:25.348Z,1024.71
2019-02-12T13:38:22.987Z,1024.69
2019-02-12T13:39:18.392Z,1024.69
2019-02-12T13:40:15.093Z,1024.72
2019-02-12T13:41:14.277Z,1024.71
2019-02-12T13:43:53.842Z,1024.69
2019-02-12T13:44:57.492Z,1024.71
2019-02-12T13:45:57.021Z,1024.72
2019-02-12T13:46:53.995Z,1024.68
2019-02-12T13:47:47.776Z,1024.71
2019-02-12T13:48:39.841Z,1024.7
2019-02-12T13:49:36.982Z,1024.69
2019-02-12T13:50:41.171Z,1024.74
2019-02-12T13:51:46.140Z,1024.75
2019-02-12T13:52:42.845Z,1024.71
2019-02-12T13:53:40.451Z,1024.71
2019-02-12T13:54:36.906Z,1024.71
2019-02-12T13:55:35.170Z,1024.81
2019-02-12T13:56:33.171Z,1024.74
2019-02-12T13:57:29.952Z,1024.71
2019-02-12T13:58:31.924Z,1024.77
2019-02-12T13:59:28.334Z,1024.77
2019-02-12T14:02:21.699Z,1024.8
2019-02-12T14:03:25.865Z,1024.82
2019-02-12T14:04:27.591Z,1024.83
2019-02-12T14:07:18.498Z,1024.74
2019-02-12T14:09:41.055Z,1024.76
2019-02-12T14:13:30.837Z,1024.71
2019-02-12T14:14:32.723Z,1024.77
2019-02-12T14:15:26.256Z,1024.77
2019-02-12T14:16:25.656Z,1024.74
2019-02-12T14:17:19.633Z,1024.76
2019-02-12T14:18:13.880Z,1024.73
2019-02-12T14:19:10.152Z,1024.75
2019-02-12T14:21:16.377Z,1024.76
2019-02-12T14:23:03.340Z,1024.79
2019-02-12T14:23:45.047Z,1024.79
2019-02-12T14:24:32.107Z,1024.81
2019-02-12T14:25:38.143Z,1024.79
2019-02-12T14:26:18.781Z,1024.82
2019-02-12T14:27:01.286Z,1024.87
2019-02-12T14:27:44.506Z,1024.87
2019-02-12T14:28:32.143Z,1024.9
2019-02-12T14:29:29.360Z,1024.94
2019-02-12T14:30:13.127Z,1024.94
2019-02-12T14:30:54.049Z,1024.91
2019-02-12T14:31:37.441Z,1024.95
2019-02-12T14:32:21.238Z,1024.94
2019-02-12T14:33:02.897Z,1024.95
2019-02-12T14:33:48.848Z,1024.91
2019-02-12T14:34:31.050Z,1024.98
2019-02-12T14:35:11.729Z,1024.96
2019-02-12T14:35:52.719Z,1024.99
2019-02-12T14:36:35.552Z,1025.01
2019-02-12T14:37:18.375Z,1024.98
2019-02-12T14:38:01.025Z,1025.04
2019-02-12T14:38:45.108Z,1024.99
2019-02-12T14:39:33.105Z,1025.02
2019-02-12T14:42:13.244Z,1025.03
2019-02-12T14:43:13.813Z,1025.03
2019-02-12T14:44:02.978Z,1025.01
2019-02-12T14:44:57.685Z,1024.98
2019-02-12T14:45:53.286Z,1024.97
2019-02-12T14:46:48.818Z,1024.99
2019-02-12T14:47:44.562Z,1025
2019-02-12T14:48:43.435Z,1024.95
2019-02-12T14:49:42.145Z,1025.02
2019-02-12T14:50:49.477Z,1025.04
2019-02-12T14:51:47.705Z,1025.05
2019-02-12T14:52:50.070Z,1024.99
2019-02-12T14:53:48.643Z,1025.02
2019-02-12T14:54:44.430Z,1025.06
2019-02-12T14:55:53.941Z,1025.07
2019-02-12T14:56:52.054Z,1025.04
2019-02-12T14:58:03.465Z,1025.04
2019-02-12T14:59:00.403Z,1025.02
2019-02-12T15:00:18.851Z,1025.03
2019-02-12T15:01:18.546Z,1025.02
2019-02-12T15:02:19.080Z,1024.98
2019-02-12T15:03:20.938Z,1025.01
2019-02-12T15:04:31.683Z,1024.95
2019-02-12T15:06:32.501Z,1024.93
2019-02-12T15:07:09.386Z,1024.92
2019-02-12T15:07:50.416Z,1024.93
2019-02-12T15:08:30.419Z,1024.94
2019-02-12T15:09:13.392Z,1024.91
2019-02-12T15:09:54.279Z,1024.97
2019-02-12T15:10:34.786Z,1024.96
2019-02-12T15:11:18.719Z,1024.98
2019-02-12T15:12:00.706Z,1024.96
2019-02-12T15:14:25.537Z,1024.94
2019-02-12T15:15:19.407Z,1024.96
2019-02-12T15:16:19.650Z,1024.96
2019-02-12T15:17:17.740Z,1024.92
2019-02-12T15:18:14.654Z,1024.9
2019-02-12T15:19:16.819Z,1024.88
2019-02-12T15:20:30.006Z,1024.93
2019-02-12T15:21:23.322Z,1024.94
2019-02-12T15:22:19.893Z,1024.89
2019-02-12T15:23:20.092Z,1024.91
2019-02-12T15:24:19.969Z,1024.88
2019-02-12T15:25:41.593Z,1024.89
2019-02-12T15:27:45.545Z,1024.88
2019-02-12T15:28:31.689Z,1024.87
2019-02-12T15:29:16.159Z,1024.91
2019-02-12T15:30:04.162Z,1024.93
2019-02-12T15:50:31.511Z,1025.14
2019-02-12T15:51:32.981Z,1025.13
2019-02-12T15:52:32.183Z,1025.11
2019-02-12T15:53:32.766Z,1025.11
2019-02-12T15:54:31.867Z,1025.12
2019-02-12T15:55:41.910Z,1025.05
2019-02-12T15:56:36.813Z,1025.07
2019-02-12T15:57:36.449Z,1024.99
2019-02-12T15:58:37.343Z,1024.95
2019-02-12T15:59:37.950Z,1024.89
2019-02-12T16:00:33.460Z,1024.93
2019-02-12T16:01:34.191Z,1024.92
2019-02-12T16:02:40.534Z,1024.92
2019-02-12T16:03:42.645Z,1024.94
2019-02-12T16:04:40.529Z,1024.95
2019-02-12T16:06:05.942Z,1024.93
2019-02-12T16:11:55.171Z,1024.85
2019-02-12T16:12:51.811Z,1024.85
2019-02-12T16:13:48.694Z,1024.86
2019-02-12T16:14:45.741Z,1024.84
2019-02-12T16:15:52.263Z,1024.82
2019-02-12T16:16:47.202Z,1024.88
2019-02-12T16:17:41.617Z,1024.87
2019-02-12T16:18:37.473Z,1024.81
2019-02-12T16:19:34.269Z,1024.83
2019-02-12T16:20:30.603Z,1024.87
2019-02-12T16:21:37.403Z,1024.87
2019-02-12T16:23:04.185Z,1024.92
2019-02-12T16:23:59.482Z,1024.91
2019-02-12T16:24:54.838Z,1024.92
2019-02-12T16:25:49.011Z,1025.01
2019-02-12T16:26:52.092Z,1024.98
2019-02-12T16:30:04.253Z,1025.07
2019-02-12T16:31:04.467Z,1025.05
2019-02-12T16:31:59.028Z,1025.09
2019-02-12T17:08:23.232Z,1025.15
2019-02-12T17:09:21.033Z,1025.14
2019-02-12T17:10:20.058Z,1025.16
2019-02-12T17:11:16.578Z,1025.16
2019-02-12T17:12:17.562Z,1025.16
2019-02-12T17:13:16.160Z,1025.18
2019-02-12T17:14:14.057Z,1025.2
2019-02-12T17:15:13.889Z,1025.22
2019-02-12T17:16:22.752Z,1025.23
2019-02-12T17:17:20.223Z,1025.24
2019-02-12T17:19:22.825Z,1025.26
2019-02-12T17:20:20.929Z,1025.26
2019-02-12T17:25:59.100Z,1025.27
2019-02-12T17:27:01.509Z,1025.26
2019-02-12T17:28:02.862Z,1025.32
2019-02-12T17:29:03.458Z,1025.31
2019-02-12T17:30:00.287Z,1025.35
2019-02-12T17:31:06.604Z,1025.36
2019-02-12T17:32:03.818Z,1025.39
2019-02-12T17:33:01.037Z,1025.41
2019-02-12T17:33:55.019Z,1025.39
2019-02-12T17:35:01.297Z,1025.39
2019-02-12T17:37:33.797Z,1025.43
2019-02-12T17:38:36.722Z,1025.45
2019-02-12T17:39:31.948Z,1025.46
2019-02-12T17:40:29.419Z,1025.43
2019-02-12T17:42:48.050Z,1025.42
2019-02-12T17:43:41.062Z,1025.42
2019-02-12T17:44:35.416Z,1025.41
2019-02-12T17:45:31.232Z,1025.4
2019-02-12T17:46:29.351Z,1025.4
2019-02-12T17:47:25.337Z,1025.41
2019-02-12T17:48:21.008Z,1025.42
2019-02-12T17:49:17.101Z,1025.42
2019-02-12T17:50:11.578Z,1025.41
2019-02-12T17:51:06.456Z,1025.46
2019-02-12T17:52:01.316Z,1025.43
2019-02-12T17:52:54.054Z,1025.43
2019-02-12T17:53:51.179Z,1025.42
2019-02-12T17:54:46.202Z,1025.49
2019-02-12T17:55:43.896Z,1025.47
2019-02-12T17:56:39.479Z,1025.47
2019-02-12T17:57:33.892Z,1025.51
2019-02-12T17:58:27.660Z,1025.49
2019-02-12T17:59:21.866Z,1025.5
2019-02-12T18:00:21.939Z,1025.5
2019-02-12T18:01:17.361Z,1025.47
2019-02-12T18:02:10.891Z,1025.49
2019-02-12T18:03:05.828Z,1025.52
2019-02-12T18:03:58.383Z,1025.58
2019-02-12T18:04:52.193Z,1025.62
2019-02-12T18:05:45.258Z,1025.59
2019-02-12T18:06:37.184Z,1025.6
2019-02-12T18:07:29.503Z,1025.59
2019-02-12T18:08:23.276Z,1025.64
2019-02-12T18:09:15.490Z,1025.58
2019-02-12T18:10:10.048Z,1025.59
2019-02-12T18:11:05.670Z,1025.58
2019-02-12T18:11:57.666Z,1025.63
2019-02-12T18:12:49.930Z,1025.6
2019-02-12T18:13:42.022Z,1025.64
2019-02-12T18:14:34.010Z,1025.6
2019-02-12T18:15:26.410Z,1025.61
2019-02-12T18:16:20.069Z,1025.6
2019-02-12T18:17:12.127Z,1025.58
2019-02-12T18:18:04.894Z,1025.61
2019-02-12T18:18:57.011Z,1025.61
2019-02-12T18:19:49.591Z,1025.59
2019-02-12T18:20:42.049Z,1025.6
2019-02-12T18:21:35.522Z,1025.59
2019-02-12T18:22:28.421Z,1025.6
2019-02-12T18:23:21.717Z,1025.6
2019-02-12T18:24:14.051Z,1025.55
2019-02-12T18:25:06.035Z,1025.57
2019-02-12T18:25:59.645Z,1025.55
2019-02-12T18:26:51.708Z,1025.54
2019-02-12T18:27:45.500Z,1025.55
2019-02-12T18:28:38.070Z,1025.55
2019-02-12T18:29:30.570Z,1025.56
2019-02-12T18:30:22.974Z,1025.57
2019-02-12T18:31:16.052Z,1025.54
2019-02-12T18:32:08.205Z,1025.55
2019-02-12T18:33:00.969Z,1025.52
2019-02-12T18:33:53.418Z,1025.55
2019-02-12T18:34:45.508Z,1025.55
2019-02-12T18:35:38.803Z,1025.55
2019-02-12T18:36:30.984Z,1025.53
2019-02-12T18:37:23.525Z,1025.55
2019-02-12T18:38:15.869Z,1025.54
2019-02-12T18:39:08.089Z,1025.59
2019-02-12T18:40:01.289Z,1025.59
2019-02-12T18:40:53.324Z,1025.59
2019-02-12T18:41:45.210Z,1025.59
2019-02-12T18:42:39.110Z,1025.58
2019-02-12T18:43:33.509Z,1025.6
2019-02-12T18:44:26.048Z,1025.6
2019-02-12T18:45:18.028Z,1025.57
2019-02-12T18:46:10.369Z,1025.59
2019-02-12T18:48:19.756Z,1025.56
2019-02-12T18:49:11.897Z,1025.59
2019-02-12T18:50:05.727Z,1025.59
2019-02-12T18:50:57.735Z,1025.54
2019-02-12T18:51:50.223Z,1025.56
2019-02-12T18:52:42.927Z,1025.58
2019-02-12T18:53:35.340Z,1025.62
2019-02-12T18:54:28.557Z,1025.57
2019-02-12T18:55:20.555Z,1025.6
2019-02-12T18:56:14.887Z,1025.57
2019-02-12T18:57:07.210Z,1025.61
2019-02-12T18:57:59.379Z,1025.6
2019-02-12T18:58:51.890Z,1025.57
2019-02-12T18:59:45.112Z,1025.56
2019-02-12T19:00:37.890Z,1025.52
2019-02-12T19:01:30.616Z,1025.54
2019-02-12T19:02:22.774Z,1025.53
2019-02-12T19:03:14.859Z,1025.52
2019-02-12T19:04:07.859Z,1025.48
2019-02-12T19:05:00.323Z,1025.49
2019-02-12T19:05:52.820Z,1025.47
2019-02-12T19:06:45.437Z,1025.48
2019-02-12T19:07:37.429Z,1025.52
2019-02-12T19:08:30.419Z,1025.51
2019-02-12T19:09:22.798Z,1025.55
2019-02-12T19:10:16.312Z,1025.58
2019-02-12T19:11:08.924Z,1025.54
2019-02-12T19:12:02.223Z,1025.59
2019-02-12T19:12:54.850Z,1025.61
2019-02-12T19:13:47.478Z,1025.61
2019-02-12T19:14:41.678Z,1025.63
2019-02-12T19:15:34.971Z,1025.61
2019-02-12T19:16:28.819Z,1025.62
2019-02-12T19:17:21.349Z,1025.62
2019-02-12T19:18:14.170Z,1025.59
2019-02-12T19:19:07.265Z,1025.6
2019-02-12T19:20:00.563Z,1025.57
2019-02-12T19:20:52.485Z,1025.56
2019-02-12T19:21:46.972Z,1025.58
2019-02-12T19:22:39.510Z,1025.6
2019-02-12T19:23:31.765Z,1025.59
2019-02-12T19:24:24.243Z,1025.59
2019-02-12T19:25:17.797Z,1025.6
2019-02-12T19:26:11.947Z,1025.57
2019-02-12T19:27:05.323Z,1025.6
2019-02-12T19:27:58.576Z,1025.61
2019-02-12T19:28:50.920Z,1025.61
2019-02-12T19:29:42.893Z,1025.59
2019-02-12T19:30:34.851Z,1025.58
2019-02-12T19:31:27.659Z,1025.58
2019-02-12T19:32:21.936Z,1025.53
2019-02-12T19:33:14.308Z,1025.54
2019-02-12T19:34:06.184Z,1025.51
2019-02-12T19:34:59.937Z,1025.54
2019-02-12T19:35:53.911Z,1025.52
2019-02-12T19:36:47.461Z,1025.56
2019-02-12T19:37:41.967Z,1025.59
2019-02-12T19:38:33.913Z,1025.59
2019-02-12T19:39:26.150Z,1025.62
2019-02-12T19:40:19.489Z,1025.62
2019-02-12T19:41:12.018Z,1025.64
2019-02-12T19:42:05.262Z,1025.7
2019-02-12T19:42:57.877Z,1025.68
2019-02-12T19:43:51.512Z,1025.66
2019-02-12T19:44:43.788Z,1025.66
2019-02-12T19:45:36.778Z,1025.62
2019-02-12T19:46:30.755Z,1025.64
2019-02-12T19:47:23.788Z,1025.62
2019-02-12T19:48:15.962Z,1025.62
2019-02-12T19:49:09.795Z,1025.65
2019-02-12T19:50:04.382Z,1025.63
2019-02-12T19:50:56.808Z,1025.58
2019-02-12T19:51:49.118Z,1025.58
2019-02-12T19:52:41.383Z,1025.56
2019-02-12T19:53:34.513Z,1025.54
2019-02-12T19:54:27.716Z,1025.58
2019-02-12T19:55:21.164Z,1025.55
2019-02-12T19:56:13.233Z,1025.57
2019-02-12T19:57:06.764Z,1025.58
2019-02-12T19:58:01.292Z,1025.64
2019-02-12T19:58:53.279Z,1025.64
2019-02-12T19:59:45.796Z,1025.62
2019-02-12T20:00:38.219Z,1025.67
2019-02-12T20:01:30.666Z,1025.68
2019-02-12T20:02:22.785Z,1025.68
2019-02-12T20:03:16.676Z,1025.71
2019-02-12T20:04:08.973Z,1025.69
2019-02-12T20:05:01.940Z,1025.71
2019-02-12T20:05:55.165Z,1025.69
2019-02-12T20:06:47.507Z,1025.72
2019-02-12T20:07:39.804Z,1025.74
2019-02-12T20:08:32.277Z,1025.69
2019-02-12T20:09:25.657Z,1025.71
2019-02-12T20:10:17.276Z,1025.7
2019-02-12T20:11:09.788Z,1025.68
2019-02-12T20:12:02.524Z,1025.69
2019-02-12T20:12:54.873Z,1025.72
2019-02-12T20:13:47.308Z,1025.74
2019-02-12T20:14:40.167Z,1025.76
2019-02-12T20:15:32.337Z,1025.7
2019-02-12T20:16:25.552Z,1025.74
2019-02-12T20:17:17.897Z,1025.72
2019-02-12T20:18:10.468Z,1025.69
2019-02-12T20:19:03.001Z,1025.69
2019-02-12T20:19:57.057Z,1025.68
2019-02-12T20:20:47.896Z,1025.7
2019-02-12T20:21:39.945Z,1025.65
2019-02-12T20:22:32.273Z,1025.68
2019-02-12T20:23:26.110Z,1025.72
2019-02-12T20:24:18.235Z,1025.71
2019-02-12T20:25:10.758Z,1025.7
2019-02-12T20:26:03.175Z,1025.7
2019-02-12T20:26:55.560Z,1025.71
2019-02-12T20:27:47.893Z,1025.68
2019-02-12T20:28:40.365Z,1025.68
2019-02-12T20:29:32.465Z,1025.67
2019-02-12T20:30:24.964Z,1025.69
2019-02-12T20:31:16.895Z,1025.68
2019-02-12T20:32:10.130Z,1025.7
2019-02-12T20:33:01.835Z,1025.69
2019-02-12T20:33:57.019Z,1025.7
2019-02-12T20:34:45.628Z,1025.7
2019-02-12T20:35:37.907Z,1025.73
2019-02-12T20:36:30.306Z,1025.75
2019-02-12T20:37:22.002Z,1025.76
2019-02-12T20:38:14.794Z,1025.76
2019-02-12T20:39:07.551Z,1025.74
2019-02-12T20:39:59.486Z,1025.75
2019-02-12T20:40:52.784Z,1025.73
2019-02-12T20:41:46.164Z,1025.75
2019-02-12T20:42:38.771Z,1025.71
2019-02-12T20:43:31.426Z,1025.72
2019-02-12T20:44:23.420Z,1025.72
2019-02-12T20:45:15.387Z,1025.69
2019-02-12T20:46:07.950Z,1025.69
2019-02-12T20:47:00.893Z,1025.67
2019-02-12T20:47:52.794Z,1025.66
2019-02-12T20:48:45.003Z,1025.66
2019-02-12T20:49:37.418Z,1025.65
2019-02-12T20:50:30.603Z,1025.7
2019-02-12T20:51:22.537Z,1025.68
2019-02-12T20:52:14.894Z,1025.66
2019-02-12T20:53:07.479Z,1025.69
2019-02-12T20:53:59.511Z,1025.69
2019-02-12T20:54:48.919Z,1025.67
2019-02-12T20:55:29.136Z,1025.68
2019-02-12T20:56:09.696Z,1025.64